Time;durP1;ratioP1;P1;durP2;ratioP2;P2;SDS_P1;SDS_P2;PMS_P1;PMS_P2;Temp;Humidity;BMP_temperature;BMP_pressure;BME280_temperature;BME280_humidity;BME280_pressure;Samples;Min_cycle;Max_cycle;Signal;HPM_P1;HPM_P2
2024/01/11 00:02:24;;;;;;;14.55;10.52;;;30.10;99.90;;;;;;4943591;29;20031;-71
2024/01/11 00:04:51;;;;;;;13.85;9.88;;;31.30;99.20;;;;;;4949513;29;20047;-72
2024/01/11 00:07:18;;;;;;;18.30;11.25;;;31.80;97.90;;;;;;4949020;28;20027;-72
2024/01/11 00:09:46;;;;;;;18.05;10.65;;;32.00;97.80;;;;;;4947662;28;20032;-72
2024/01/11 00:12:13;;;;;;;15.65;9.95;;;32.40;96.50;;;;;;4951766;28;20469;-72
2024/01/11 00:14:41;;;;;;;14.82;9.98;;;32.70;95.80;;;;;;4951174;28;20064;-74
2024/01/11 00:17:08;;;;;;;14.82;9.20;;;32.70;96.00;;;;;;4944866;29;20043;-74
2024/01/11 00:19:36;;;;;;;11.30;8.75;;;32.80;95.80;;;;;;4943879;28;20077;-74
2024/01/11 00:22:03;;;;;;;19.10;10.05;;;32.70;95.70;;;;;;4947872;28;20059;-73
2024/01/11 00:24:30;;;;;;;16.50;10.73;;;32.50;96.30;;;;;;4948778;29;20553;-72
2024/01/11 00:26:58;;;;;;;15.95;11.05;;;32.00;96.10;;;;;;4948928;29;20110;-72
2024/01/11 00:29:25;;;;;;;16.13;10.45;;;31.90;96.60;;;;;;4948192;28;20030;-73
2024/01/11 00:31:52;;;;;;;12.82;9.45;;;32.80;97.00;;;;;;4949235;28;20036;-72
2024/01/11 00:34:21;;;;;;;11.68;9.30;;;33.60;96.10;;;;;;4948866;28;20031;-72
2024/01/11 00:36:49;;;;;;;11.60;7.38;;;34.20;94.90;;;;;;4946785;28;20043;-74
2024/01/11 00:39:20;;;;;;;11.90;7.15;;;34.00;94.30;;;;;;4947841;28;20447;-72
2024/01/11 00:41:47;;;;;;;12.73;7.13;;;33.80;94.00;;;;;;4941536;29;20031;-70
2024/01/11 00:44:14;;;;;;;12.02;7.97;;;33.30;93.90;;;;;;4948881;28;20421;-72
2024/01/11 00:46:42;;;;;;;15.82;9.15;;;32.70;94.50;;;;;;4948270;28;20101;-72
2024/01/11 00:49:10;;;;;;;16.02;7.80;;;32.50;94.70;;;;;;4947510;28;20035;-72
2024/01/11 00:51:37;;;;;;;14.35;7.20;;;32.30;95.10;;;;;;4948511;29;20074;-71
2024/01/11 00:54:05;;;;;;;16.30;7.20;;;32.30;95.90;;;;;;4950267;28;20066;-72
2024/01/11 00:56:35;;;;;;;10.07;6.28;;;32.20;95.90;;;;;;4948976;28;20067;-71
2024/01/11 00:59:04;;;;;;;11.43;7.25;;;32.10;95.50;;;;;;4948493;29;20114;-74
2024/01/11 01:01:31;;;;;;;10.30;7.72;;;31.80;95.80;;;;;;4951603;28;20042;-70
2024/01/11 01:03:59;;;;;;;9.20;6.80;;;31.70;96.00;;;;;;4946009;28;20031;-71
2024/01/11 01:06:27;;;;;;;8.43;6.50;;;31.70;95.60;;;;;;4944165;28;20042;-72
2024/01/11 01:08:56;;;;;;;8.07;4.32;;;31.50;95.90;;;;;;4947879;28;20028;-73
2024/01/11 01:11:23;;;;;;;4.90;3.80;;;31.90;95.40;;;;;;4948983;28;20392;-72
2024/01/11 01:13:50;;;;;;;4.88;3.28;;;31.90;95.50;;;;;;4947778;29;20041;-73
2024/01/11 01:16:18;;;;;;;5.97;2.80;;;31.80;95.60;;;;;;4945925;28;20034;-73
2024/01/11 01:18:45;;;;;;;6.40;3.00;;;31.80;95.10;;;;;;4949543;28;20493;-71
2024/01/11 01:21:12;;;;;;;4.07;2.30;;;31.50;95.30;;;;;;4947388;28;20041;-73
2024/01/11 01:23:40;;;;;;;7.97;2.55;;;31.40;95.50;;;;;;4945663;28;20117;-72
2024/01/11 01:26:08;;;;;;;6.50;2.53;;;32.10;95.20;;;;;;4946783;29;20031;-72
2024/01/11 01:28:36;;;;;;;7.30;2.42;;;33.10;95.10;;;;;;4950636;28;20023;-73
2024/01/11 01:31:03;;;;;;;5.75;2.47;;;33.80;93.10;;;;;;4946255;28;20118;-73
2024/01/11 01:33:34;;;;;;;6.15;2.20;;;34.20;92.40;;;;;;4945814;29;20019;-72
2024/01/11 01:36:01;;;;;;;7.95;2.40;;;34.70;92.30;;;;;;4947833;28;20082;-72
2024/01/11 01:38:30;;;;;;;5.80;2.40;;;35.00;91.30;;;;;;4949003;28;20051;-72
2024/01/11 01:40:57;;;;;;;5.13;2.33;;;34.70;91.40;;;;;;4946895;28;20058;-72
2024/01/11 01:43:28;;;;;;;6.95;2.58;;;35.00;91.90;;;;;;4946098;29;20024;-72
2024/01/11 01:45:55;;;;;;;7.07;2.10;;;35.20;91.10;;;;;;4948835;28;20027;-73
2024/01/11 01:48:22;;;;;;;6.25;2.83;;;35.10;90.10;;;;;;4944291;29;20023;-71
2024/01/11 01:50:50;;;;;;;7.45;2.70;;;35.50;90.70;;;;;;4948576;29;20492;-72
2024/01/11 01:53:28;;;;;;;7.75;2.75;;;35.70;90.00;;;;;;4950462;28;20043;-73
2024/01/11 01:55:56;;;;;;;5.72;2.63;;;35.70;89.50;;;;;;4948263;28;20047;-72
2024/01/11 01:58:24;;;;;;;4.97;2.67;;;35.60;90.40;;;;;;4948541;28;21124;-71
2024/01/11 02:00:52;;;;;;;5.03;2.55;;;35.80;90.60;;;;;;4950187;28;20520;-71
2024/01/11 02:03:20;;;;;;;6.22;3.00;;;35.60;88.20;;;;;;4947554;28;20106;-72
2024/01/11 02:05:47;;;;;;;3.70;2.17;;;35.40;89.30;;;;;;4945502;28;20667;-71
2024/01/11 02:08:18;;;;;;;9.02;2.75;;;35.20;88.70;;;;;;4948181;28;20457;-71
2024/01/11 02:10:46;;;;;;;6.80;2.20;;;35.50;88.20;;;;;;4944739;28;20062;-71
2024/01/11 02:13:17;;;;;;;6.65;3.38;;;35.00;87.20;;;;;;4943363;28;20039;-72
2024/01/11 02:15:49;;;;;;;7.43;3.08;;;34.30;90.10;;;;;;4940522;28;21061;-71
2024/01/11 02:18:16;;;;;;;6.40;2.90;;;34.50;91.00;;;;;;4941439;28;20476;-72
2024/01/11 02:20:44;;;;;;;5.78;2.85;;;35.00;90.10;;;;;;4946086;28;20115;-71
2024/01/11 02:23:18;;;;;;;5.65;2.78;;;34.90;89.10;;;;;;4947488;28;20107;-72
2024/01/11 02:25:45;;;;;;;8.32;3.05;;;34.10;89.60;;;;;;4941886;28;20043;-72
2024/01/11 02:28:13;;;;;;;9.30;3.40;;;33.40;90.80;;;;;;4946518;28;20519;-72
2024/01/11 02:30:40;;;;;;;9.98;3.30;;;33.70;91.60;;;;;;4946186;28;20038;-71
2024/01/11 02:33:09;;;;;;;5.60;2.92;;;34.40;89.90;;;;;;4941677;28;20038;-72
2024/01/11 02:35:39;;;;;;;6.63;3.20;;;35.00;90.10;;;;;;4947120;28;20043;-71
2024/01/11 02:38:07;;;;;;;6.43;2.92;;;35.40;89.50;;;;;;4949873;28;20491;-71
2024/01/11 02:40:35;;;;;;;5.13;3.22;;;35.70;88.20;;;;;;4947556;28;20374;-72
2024/01/11 02:43:11;;;;;;;7.00;2.83;;;35.70;87.30;;;;;;4949795;28;21337;-71
2024/01/11 02:45:39;;;;;;;6.63;2.70;;;35.50;87.10;;;;;;4944235;28;20395;-73
2024/01/11 02:48:06;;;;;;;6.22;2.65;;;35.50;87.70;;;;;;4941675;28;20107;-72
2024/01/11 02:50:34;;;;;;;6.75;2.42;;;35.40;87.90;;;;;;4946642;28;20047;-73
2024/01/11 02:53:01;;;;;;;8.55;3.13;;;35.40;86.00;;;;;;4941047;28;20151;-73
2024/01/11 02:55:29;;;;;;;7.65;3.03;;;35.50;84.90;;;;;;4948646;29;20540;-74
2024/01/11 02:57:56;;;;;;;7.30;2.85;;;35.30;87.00;;;;;;4947244;28;20035;-73
2024/01/11 03:00:23;;;;;;;9.52;3.78;;;35.20;86.10;;;;;;4961516;28;20448;-73
2024/01/11 03:02:51;;;;;;;9.63;3.20;;;34.90;87.20;;;;;;4945286;28;20053;-72
2024/01/11 03:05:18;;;;;;;10.52;3.08;;;34.10;89.80;;;;;;4943640;28;20066;-73
2024/01/11 03:07:46;;;;;;;7.22;3.08;;;33.40;90.90;;;;;;4947262;28;20023;-73
2024/01/11 03:10:13;;;;;;;9.02;2.70;;;33.60;91.40;;;;;;4947155;28;20027;-74
2024/01/11 03:12:41;;;;;;;7.85;2.95;;;33.90;90.50;;;;;;4942288;28;20032;-73
2024/01/11 03:15:09;;;;;;;8.02;2.70;;;34.20;90.00;;;;;;4945786;29;20031;-72
2024/01/11 03:17:36;;;;;;;6.07;2.65;;;34.50;88.90;;;;;;4946246;28;20111;-72
2024/01/11 03:20:05;;;;;;;5.75;2.35;;;34.70;88.90;;;;;;4946072;29;20086;-71
2024/01/11 03:22:33;;;;;;;7.57;2.65;;;35.00;89.80;;;;;;4944063;28;20513;-69
2024/01/11 03:25:00;;;;;;;5.93;1.90;;;35.00;88.20;;;;;;4948167;28;20031;-69
2024/01/11 03:27:28;;;;;;;5.90;2.08;;;35.00;87.90;;;;;;4947345;29;20117;-69
2024/01/11 03:29:55;;;;;;;10.70;3.10;;;35.00;87.60;;;;;;4949570;29;20041;-69
2024/01/11 03:32:22;;;;;;;6.95;2.50;;;34.10;89.10;;;;;;4951127;28;20062;-69
2024/01/11 03:34:50;;;;;;;5.07;2.42;;;33.80;90.20;;;;;;4947613;29;20023;-69
2024/01/11 03:37:18;;;;;;;4.00;2.20;;;33.80;90.50;;;;;;4946844;28;20043;-69
2024/01/11 03:39:45;;;;;;;7.60;2.70;;;34.00;89.90;;;;;;4943007;29;20034;-68
2024/01/11 03:42:12;;;;;;;5.57;2.25;;;33.60;90.50;;;;;;4943217;29;20023;-69
2024/01/11 03:44:41;;;;;;;10.88;3.10;;;33.60;90.80;;;;;;4944956;29;20055;-70
2024/01/11 03:47:09;;;;;;;6.88;3.08;;;33.60;90.60;;;;;;4944546;29;20364;-69
2024/01/11 03:49:36;;;;;;;8.75;3.03;;;33.80;90.60;;;;;;4945675;28;20034;-68
2024/01/11 03:52:10;;;;;;;7.07;3.03;;;33.80;90.30;;;;;;4944578;28;20062;-69
2024/01/11 03:54:38;;;;;;;8.32;3.42;;;33.40;90.50;;;;;;4958165;28;20046;-69
2024/01/11 03:57:06;;;;;;;7.82;3.40;;;33.50;90.90;;;;;;4945630;28;20043;-70
2024/01/11 03:59:35;;;;;;;8.82;3.53;;;33.30;90.70;;;;;;4945869;28;20180;-69
2024/01/11 04:02:02;;;;;;;7.07;3.17;;;33.60;90.80;;;;;;4947857;28;20031;-69
2024/01/11 04:04:29;;;;;;;7.03;2.75;;;33.60;90.70;;;;;;4941796;28;20046;-69
2024/01/11 04:06:57;;;;;;;6.03;2.30;;;33.90;91.00;;;;;;4945441;28;20593;-68
2024/01/11 04:09:25;;;;;;;11.55;2.75;;;34.30;90.00;;;;;;4930765;29;20031;-70
2024/01/11 04:11:52;;;;;;;8.90;2.85;;;34.10;89.60;;;;;;4946590;28;20039;-68
2024/01/11 04:14:21;;;;;;;7.15;2.53;;;33.80;89.20;;;;;;4948842;29;20457;-68
2024/01/11 04:16:48;;;;;;;7.05;2.33;;;33.60;89.90;;;;;;4945609;28;20061;-69
2024/01/11 04:19:15;;;;;;;5.93;2.38;;;33.80;90.20;;;;;;4941952;29;20019;-69
2024/01/11 04:21:47;;;;;;;5.72;2.58;;;34.00;90.50;;;;;;4948145;28;20034;-70
2024/01/11 04:24:15;;;;;;;6.57;2.33;;;34.00;89.80;;;;;;4948784;29;20047;-68
2024/01/11 04:26:42;;;;;;;6.35;2.50;;;33.80;90.10;;;;;;4950516;28;20031;-69
2024/01/11 04:29:09;;;;;;;5.32;2.25;;;33.90;89.30;;;;;;4947811;29;20043;-69
2024/01/11 04:31:37;;;;;;;5.43;2.03;;;33.80;90.20;;;;;;4947519;28;20027;-71
2024/01/11 04:34:04;;;;;;;9.95;2.13;;;33.80;90.20;;;;;;4946698;29;20034;-70
2024/01/11 04:36:31;;;;;;;4.97;1.90;;;34.00;90.20;;;;;;4947904;29;20114;-70
2024/01/11 04:38:59;;;;;;;6.13;2.00;;;33.60;89.80;;;;;;4953702;28;20171;-69
2024/01/11 04:41:26;;;;;;;4.82;1.90;;;33.40;90.60;;;;;;4947994;28;20032;-70
2024/01/11 04:43:53;;;;;;;6.70;2.35;;;33.40;90.70;;;;;;4949923;28;20134;-70
2024/01/11 04:46:22;;;;;;;6.38;1.80;;;33.40;90.80;;;;;;4949537;28;20031;-70
2024/01/11 04:48:50;;;;;;;6.85;2.20;;;33.60;90.60;;;;;;4947425;28;20038;-70
2024/01/11 04:51:19;;;;;;;4.13;1.80;;;33.80;90.20;;;;;;4948107;29;20039;-69
2024/01/11 04:53:47;;;;;;;6.93;2.47;;;33.90;89.50;;;;;;4950586;28;20389;-69
2024/01/11 04:56:17;;;;;;;4.00;1.63;;;33.90;89.80;;;;;;4946725;28;20396;-68
2024/01/11 04:58:45;;;;;;;8.10;1.92;;;33.60;90.00;;;;;;4947898;29;20374;-69
2024/01/11 05:01:14;;;;;;;7.63;2.08;;;33.10;90.70;;;;;;4947888;28;20374;-70
2024/01/11 05:03:42;;;;;;;6.43;2.15;;;32.80;91.30;;;;;;4945798;28;20037;-68
2024/01/11 05:06:15;;;;;;;3.80;1.58;;;32.80;91.20;;;;;;4947303;28;20031;-70
2024/01/11 05:08:43;;;;;;;6.15;1.75;;;33.10;91.20;;;;;;4947201;28;20099;-69
2024/01/11 05:11:19;;;;;;;6.68;1.70;;;33.20;91.10;;;;;;4948580;28;20109;-69
2024/01/11 05:13:50;;;;;;;5.97;1.50;;;33.00;91.10;;;;;;4944960;28;20035;-69
2024/01/11 05:16:25;;;;;;;4.63;1.50;;;33.00;91.10;;;;;;4961666;28;20063;-70
2024/01/11 05:18:54;;;;;;;9.07;1.73;;;33.30;91.20;;;;;;4950197;29;20121;-68
2024/01/11 05:21:22;;;;;;;4.03;1.20;;;33.20;90.50;;;;;;4946723;28;20051;-70
2024/01/11 05:23:51;;;;;;;6.03;1.73;;;32.50;91.50;;;;;;4947273;29;20066;-69
2024/01/11 05:26:19;;;;;;;3.53;1.60;;;32.50;92.00;;;;;;4949434;28;20031;-68
2024/01/11 05:28:46;;;;;;;6.32;1.55;;;32.80;91.60;;;;;;4949540;28;20055;-69
2024/01/11 05:31:15;;;;;;;6.85;1.42;;;32.40;91.40;;;;;;4948513;28;20452;-70
2024/01/11 05:33:43;;;;;;;4.38;1.10;;;32.40;91.80;;;;;;4954093;28;20039;-69
2024/01/11 05:36:11;;;;;;;4.97;1.67;;;32.40;91.90;;;;;;4947985;28;20039;-70
2024/01/11 05:38:42;;;;;;;3.55;1.13;;;32.60;91.40;;;;;;4945184;29;20038;-69
2024/01/11 05:41:10;;;;;;;3.85;1.40;;;32.60;91.40;;;;;;4943381;28;20034;-69
2024/01/11 05:43:39;;;;;;;6.00;1.35;;;32.50;91.50;;;;;;4949003;29;20122;-70
2024/01/11 05:46:07;;;;;;;6.75;1.73;;;32.30;91.50;;;;;;4945602;28;20035;-70
2024/01/11 05:48:34;;;;;;;7.30;1.25;;;31.80;92.50;;;;;;4943192;28;20126;-69
2024/01/11 05:51:01;;;;;;;4.03;1.40;;;31.70;93.20;;;;;;4945124;29;20031;-69
2024/01/11 05:53:29;;;;;;;5.38;1.35;;;31.50;93.00;;;;;;4944060;29;20047;-69
2024/01/11 05:55:56;;;;;;;4.75;1.50;;;31.30;93.20;;;;;;4947401;28;20039;-69
2024/01/11 05:58:23;;;;;;;4.63;1.40;;;31.20;93.30;;;;;;4945844;29;20034;-69
2024/01/11 06:00:51;;;;;;;5.40;1.58;;;31.20;93.30;;;;;;4940313;28;20473;-70
2024/01/11 06:03:18;;;;;;;6.50;1.67;;;31.30;93.70;;;;;;4943577;29;20038;-69
2024/01/11 06:05:46;;;;;;;6.50;1.65;;;31.20;94.00;;;;;;4947331;28;20035;-68
2024/01/11 06:08:13;;;;;;;4.95;1.80;;;31.20;94.20;;;;;;4947508;28;20485;-69
2024/01/11 06:10:41;;;;;;;4.85;1.25;;;31.30;93.90;;;;;;4943273;28;20028;-69
2024/01/11 06:13:09;;;;;;;4.15;1.30;;;31.10;94.00;;;;;;4948209;29;20059;-70
2024/01/11 06:15:36;;;;;;;5.35;1.30;;;31.20;93.90;;;;;;4940767;28;20106;-68
2024/01/11 06:18:04;;;;;;;8.18;1.80;;;31.20;93.90;;;;;;4943130;28;20027;-68
2024/01/11 06:20:32;;;;;;;4.65;1.40;;;31.20;93.90;;;;;;4947148;28;20371;-67
2024/01/11 06:22:59;;;;;;;7.60;1.85;;;31.20;94.00;;;;;;4942512;28;20590;-69
2024/01/11 06:25:27;;;;;;;9.50;1.70;;;31.20;94.00;;;;;;4945268;28;20031;-70
2024/01/11 06:27:55;;;;;;;7.63;1.50;;;31.20;94.20;;;;;;4949681;29;20082;-70
2024/01/11 06:30:23;;;;;;;5.80;1.40;;;31.10;94.30;;;;;;4948874;28;20048;-69
2024/01/11 06:32:50;;;;;;;7.60;1.77;;;31.20;94.70;;;;;;4932786;29;20042;-69
2024/01/11 06:35:18;;;;;;;7.22;1.48;;;31.50;94.50;;;;;;4945454;29;20373;-69
2024/01/11 06:37:46;;;;;;;5.25;1.33;;;31.20;94.30;;;;;;4946582;29;20457;-69
2024/01/11 06:40:14;;;;;;;5.22;1.48;;;30.70;94.70;;;;;;4946272;29;20780;-70
2024/01/11 06:42:41;;;;;;;6.20;1.40;;;30.40;95.00;;;;;;4957575;28;20129;-69
2024/01/11 06:45:09;;;;;;;5.38;1.20;;;30.30;95.10;;;;;;4943915;28;20024;-69
2024/01/11 06:47:36;;;;;;;4.75;1.20;;;30.30;95.10;;;;;;4946381;28;20123;-68
2024/01/11 06:50:04;;;;;;;5.85;1.65;;;30.40;95.00;;;;;;4946619;28;20019;-69
2024/01/11 06:52:31;;;;;;;4.07;1.20;;;30.60;95.20;;;;;;4945042;29;20194;-69
2024/01/11 06:55:00;;;;;;;6.05;1.65;;;30.60;95.40;;;;;;4946813;29;20027;-69
2024/01/11 06:57:27;;;;;;;7.10;1.38;;;30.50;95.10;;;;;;4948594;28;20039;-69
2024/01/11 06:59:54;;;;;;;4.72;1.40;;;30.40;95.40;;;;;;4960874;28;20409;-69
2024/01/11 07:02:22;;;;;;;5.30;1.20;;;30.40;95.40;;;;;;4943856;28;20032;-70
2024/01/11 07:04:50;;;;;;;3.33;1.52;;;30.50;95.50;;;;;;4942665;28;20034;-71
2024/01/11 07:07:18;;;;;;;4.45;1.25;;;30.50;95.20;;;;;;4943878;28;20055;-68
2024/01/11 07:09:46;;;;;;;3.85;1.38;;;30.40;95.40;;;;;;4945232;29;20041;-70
2024/01/11 07:12:13;;;;;;;6.60;1.23;;;30.30;95.70;;;;;;4941390;29;20058;-71
2024/01/11 07:14:40;;;;;;;5.28;1.40;;;30.20;95.80;;;;;;4942447;28;20774;-70
2024/01/11 07:17:08;;;;;;;4.28;1.58;;;30.10;95.90;;;;;;4944123;28;20067;-70
2024/01/11 07:19:36;;;;;;;11.70;1.77;;;30.10;96.10;;;;;;4946573;29;20599;-69
2024/01/11 07:22:04;;;;;;;5.13;1.52;;;30.10;96.10;;;;;;4946821;28;20032;-71
2024/01/11 07:24:37;;;;;;;4.72;1.10;;;29.90;96.30;;;;;;4941699;29;20063;-70
2024/01/11 07:27:07;;;;;;;6.82;1.33;;;29.80;96.40;;;;;;4946098;29;20116;-69
2024/01/11 07:29:35;;;;;;;5.50;1.67;;;29.90;96.50;;;;;;4948280;28;20031;-69
2024/01/11 07:32:03;;;;;;;6.47;1.83;;;29.80;96.80;;;;;;4949668;28;20066;-69
2024/01/11 07:34:31;;;;;;;3.42;1.20;;;29.60;96.80;;;;;;4945942;28;20031;-70
2024/01/11 07:36:58;;;;;;;4.55;1.33;;;29.40;97.10;;;;;;4944733;28;20493;-70
2024/01/11 07:39:26;;;;;;;4.53;1.35;;;29.30;97.20;;;;;;4947480;28;20137;-70
2024/01/11 07:41:53;;;;;;;4.15;1.50;;;29.40;97.30;;;;;;4945447;28;20053;-70
2024/01/11 07:44:21;;;;;;;8.40;1.80;;;29.40;97.10;;;;;;4945850;28;20401;-67
2024/01/11 07:46:48;;;;;;;5.72;2.13;;;29.30;97.20;;;;;;4944519;29;20031;-69
2024/01/11 07:49:16;;;;;;;4.60;1.52;;;29.30;97.20;;;;;;4948327;28;20032;-69
2024/01/11 07:51:43;;;;;;;4.20;1.40;;;29.30;97.30;;;;;;4944916;29;20031;-70
2024/01/11 07:54:11;;;;;;;6.82;1.38;;;29.40;97.20;;;;;;4962569;28;20114;-69
2024/01/11 07:56:38;;;;;;;4.30;1.55;;;29.50;97.10;;;;;;4945884;28;20055;-71
2024/01/11 07:59:06;;;;;;;4.28;1.58;;;29.30;97.20;;;;;;4947250;29;20510;-67
2024/01/11 08:01:35;;;;;;;5.70;1.65;;;29.10;97.50;;;;;;4951917;29;20031;-70
2024/01/11 08:04:02;;;;;;;3.20;1.88;;;28.90;97.80;;;;;;4950640;28;20035;-69
2024/01/11 08:06:30;;;;;;;5.00;1.85;;;28.90;98.00;;;;;;4952398;28;20015;-71
2024/01/11 08:08:59;;;;;;;4.80;1.38;;;29.00;97.90;;;;;;4953095;28;20031;-69
2024/01/11 08:11:28;;;;;;;7.82;1.98;;;29.00;97.80;;;;;;4950018;29;20030;-70
2024/01/11 08:13:59;;;;;;;3.47;1.30;;;29.20;97.60;;;;;;4947222;28;20114;-69
2024/01/11 08:16:27;;;;;;;6.45;1.52;;;29.10;97.60;;;;;;4950857;28;20039;-68
2024/01/11 08:18:55;;;;;;;7.45;1.58;;;29.00;97.80;;;;;;4950210;29;20444;-69
2024/01/11 08:21:22;;;;;;;5.50;1.40;;;29.00;97.80;;;;;;4948034;28;20046;-69
2024/01/11 08:23:50;;;;;;;3.88;1.45;;;28.90;97.90;;;;;;4951218;28;20042;-70
2024/01/11 08:26:21;;;;;;;4.10;1.83;;;28.80;98.20;;;;;;4950554;29;20070;-73
2024/01/11 08:28:49;;;;;;;6.13;1.95;;;28.80;98.30;;;;;;4946601;29;20445;-70
2024/01/11 08:31:16;;;;;;;4.15;1.40;;;28.80;98.40;;;;;;4951181;28;20483;-69
2024/01/11 08:33:47;;;;;;;8.13;1.60;;;28.70;98.50;;;;;;4946277;28;20441;-69
2024/01/11 08:36:14;;;;;;;4.57;1.42;;;28.70;98.50;;;;;;4959036;28;20093;-70
2024/01/11 08:38:41;;;;;;;9.32;1.60;;;28.50;98.80;;;;;;4952590;28;20439;-70
2024/01/11 08:41:09;;;;;;;9.00;1.40;;;28.40;99.10;;;;;;4950247;28;20038;-70
2024/01/11 08:43:37;;;;;;;4.45;1.42;;;28.30;99.10;;;;;;4943513;28;20027;-70
2024/01/11 08:46:04;;;;;;;4.13;1.77;;;28.30;99.20;;;;;;4946881;28;20027;-71
2024/01/11 08:48:31;;;;;;;5.97;1.65;;;28.20;99.30;;;;;;4952563;28;20043;-70
2024/01/11 08:50:59;;;;;;;5.70;1.75;;;28.20;99.40;;;;;;4946051;28;20082;-69
2024/01/11 08:53:26;;;;;;;4.68;1.67;;;28.10;99.60;;;;;;4950197;28;20043;-69
2024/01/11 08:55:53;;;;;;;5.80;1.48;;;28.00;99.90;;;;;;4945258;28;20040;-69
2024/01/11 08:58:21;;;;;;;5.57;1.63;;;28.00;99.70;;;;;;4947850;28;20389;-69
2024/01/11 09:00:48;;;;;;;8.63;1.65;;;28.10;99.80;;;;;;4945357;29;20146;-69
2024/01/11 09:03:16;;;;;;;6.05;1.52;;;28.00;99.90;;;;;;4942733;29;20028;-68
2024/01/11 09:05:44;;;;;;;5.45;1.70;;;28.00;99.90;;;;;;4945700;28;20051;-69
2024/01/11 09:08:11;;;;;;;5.50;1.63;;;27.90;99.90;;;;;;4945435;28;20031;-69
2024/01/11 09:10:39;;;;;;;8.52;2.10;;;27.90;99.90;;;;;;4948732;28;20133;-70
2024/01/11 09:13:06;;;;;;;6.05;1.70;;;27.80;99.90;;;;;;4949221;29;20381;-70
2024/01/11 09:15:34;;;;;;;4.47;1.60;;;27.70;99.90;;;;;;4952049;28;20045;-70
2024/01/11 09:18:02;;;;;;;4.47;1.83;;;27.70;99.90;;;;;;4950903;28;20051;-70
2024/01/11 09:20:30;;;;;;;8.07;2.28;;;27.60;99.90;;;;;;4949218;29;20028;-70
2024/01/11 09:22:57;;;;;;;5.88;2.10;;;27.60;99.90;;;;;;4951041;28;20503;-70
2024/01/11 09:25:25;;;;;;;7.03;2.00;;;27.50;99.90;;;;;;4946770;28;20131;-70
2024/01/11 09:27:52;;;;;;;6.03;1.92;;;27.50;99.90;;;;;;4947463;29;20496;-70
2024/01/11 09:30:19;;;;;;;10.57;1.95;;;27.50;99.90;;;;;;4947970;29;20024;-70
2024/01/11 09:32:49;;;;;;;6.80;2.47;;;27.50;99.90;;;;;;4947823;28;20425;-69
2024/01/11 09:35:17;;;;;;;11.25;3.45;;;27.50;99.90;;;;;;4949911;29;20031;-67
2024/01/11 09:37:46;;;;;;;8.75;2.55;;;27.40;99.90;;;;;;4944461;29;21104;-68
2024/01/11 09:40:13;;;;;;;16.55;2.60;;;27.10;99.90;;;;;;4948420;28;20015;-69
2024/01/11 09:42:41;;;;;;;9.13;2.10;;;27.10;99.90;;;;;;4951683;29;20473;-70
2024/01/11 09:45:17;;;;;;;10.13;3.00;;;27.20;99.90;;;;;;4951921;28;20056;-71
2024/01/11 09:47:50;;;;;;;6.85;1.70;;;27.20;99.90;;;;;;4950246;28;20023;-71
2024/01/11 09:50:17;;;;;;;6.60;1.85;;;26.60;99.90;;;;;;4948438;29;20031;-71
2024/01/11 09:52:51;;;;;;;9.05;2.50;;;26.40;99.90;;;;;;4949121;29;20069;-72
2024/01/11 09:55:19;;;;;;;13.70;3.80;;;26.10;99.90;;;;;;4949399;29;20030;-71
2024/01/11 09:57:48;;;;;;;7.85;2.10;;;25.90;99.90;;;;;;4945513;28;20027;-74
2024/01/11 10:00:20;;;;;;;9.13;2.20;;;25.60;99.90;;;;;;4946132;29;20030;-72
2024/01/11 10:02:48;;;;;;;5.35;1.60;;;25.60;99.90;;;;;;4948589;29;20473;-72
2024/01/11 10:05:18;;;;;;;10.70;2.25;;;25.50;99.90;;;;;;4949725;28;20038;-71
2024/01/11 10:07:46;;;;;;;13.05;2.60;;;25.50;99.90;;;;;;4950605;28;20429;-72
2024/01/11 10:10:17;;;;;;;8.38;2.13;;;25.50;99.90;;;;;;4949752;28;20023;-72
2024/01/11 10:12:44;;;;;;;7.05;1.85;;;25.50;99.90;;;;;;4947121;28;20452;-71
2024/01/11 10:15:13;;;;;;;6.90;2.50;;;25.60;99.90;;;;;;4948865;29;20037;-71
2024/01/11 10:17:45;;;;;;;11.60;2.67;;;25.50;99.90;;;;;;4948552;28;20039;-72
2024/01/11 10:20:23;;;;;;;11.95;3.05;;;25.50;99.90;;;;;;4949866;28;20039;-73
2024/01/11 10:22:52;;;;;;;7.28;2.55;;;25.50;99.90;;;;;;4949294;29;20400;-70
2024/01/11 10:25:20;;;;;;;11.15;2.90;;;25.50;99.90;;;;;;4949640;28;20027;-74
2024/01/11 10:27:48;;;;;;;7.03;3.08;;;25.50;99.90;;;;;;4948078;29;20035;-74
2024/01/11 10:30:16;;;;;;;7.65;2.80;;;25.50;99.90;;;;;;4952565;28;20376;-73
2024/01/11 10:32:48;;;;;;;9.88;2.97;;;25.50;99.90;;;;;;4948499;29;20086;-71
2024/01/11 10:35:18;;;;;;;10.35;3.08;;;25.60;99.90;;;;;;4949210;29;20396;-71
2024/01/11 10:37:46;;;;;;;13.60;3.75;;;25.60;99.90;;;;;;4945615;28;20089;-71
2024/01/11 10:40:15;;;;;;;10.45;3.53;;;25.60;99.90;;;;;;4948987;29;20137;-71
2024/01/11 10:42:44;;;;;;;7.25;3.10;;;25.60;99.90;;;;;;4947587;29;20047;-72
2024/01/11 10:45:19;;;;;;;11.88;3.08;;;25.60;99.90;;;;;;4944489;28;20023;-72
2024/01/11 10:47:59;;;;;;;7.65;3.03;;;25.70;99.90;;;;;;4949127;28;20038;-73
2024/01/11 10:50:30;;;;;;;5.78;2.33;;;25.60;99.90;;;;;;4950191;28;20481;-72
2024/01/11 10:53:34;;;;;;;10.38;3.22;;;25.60;99.90;;;;;;4945140;29;20051;-72
2024/01/11 10:56:03;;;;;;;13.02;2.50;;;25.60;99.90;;;;;;4949501;28;20047;-73
2024/01/11 10:58:38;;;;;;;7.32;2.75;;;25.60;99.90;;;;;;4950660;28;20397;-74
2024/01/11 11:01:06;;;;;;;6.45;2.50;;;25.70;99.90;;;;;;4947817;28;20038;-73
2024/01/11 11:03:36;;;;;;;9.60;2.75;;;25.60;99.90;;;;;;4949061;28;20031;-73
2024/01/11 11:06:05;;;;;;;12.07;3.47;;;25.70;99.90;;;;;;4944942;28;20039;-74
2024/01/11 11:08:34;;;;;;;11.82;3.10;;;25.80;99.90;;;;;;4948730;28;20425;-72
2024/01/11 11:11:06;;;;;;;12.43;3.35;;;25.70;99.90;;;;;;4944627;28;20032;-72
2024/01/11 11:13:37;;;;;;;13.50;3.63;;;25.80;99.90;;;;;;4942323;28;20027;-71
2024/01/11 11:16:05;;;;;;;5.70;2.47;;;25.80;99.90;;;;;;4947932;28;20572;-73
2024/01/11 11:18:35;;;;;;;18.13;3.38;;;25.80;99.90;;;;;;4948710;28;20031;-73
2024/01/11 11:21:13;;;;;;;6.60;2.65;;;25.60;99.90;;;;;;4961065;28;20035;-73
2024/01/11 11:23:41;;;;;;;8.85;3.10;;;25.70;99.90;;;;;;4947781;29;20038;-72
2024/01/11 11:26:14;;;;;;;16.45;3.40;;;25.70;99.90;;;;;;4948737;28;20114;-73
2024/01/11 11:28:42;;;;;;;11.10;2.90;;;25.70;99.90;;;;;;4948895;28;20046;-72
2024/01/11 11:31:12;;;;;;;11.80;2.30;;;25.80;99.90;;;;;;4946490;28;20023;-72
2024/01/11 11:33:41;;;;;;;11.93;2.40;;;25.80;99.90;;;;;;4946556;28;20023;-72
2024/01/11 11:36:13;;;;;;;7.53;2.00;;;25.80;99.90;;;;;;4947968;29;20035;-72
2024/01/11 11:38:41;;;;;;;13.82;2.42;;;25.90;99.90;;;;;;4944698;29;20035;-72
2024/01/11 11:41:10;;;;;;;7.82;2.10;;;25.70;99.90;;;;;;4947380;28;20083;-73
2024/01/11 11:43:40;;;;;;;9.38;2.78;;;25.70;99.90;;;;;;4950237;29;20024;-74
2024/01/11 11:46:08;;;;;;;8.73;2.15;;;25.60;99.90;;;;;;4948630;28;20031;-74
2024/01/11 11:48:36;;;;;;;7.53;1.80;;;25.60;99.90;;;;;;4948925;28;20023;-72
2024/01/11 11:51:15;;;;;;;15.90;2.75;;;25.60;99.90;;;;;;4948362;28;20035;-71
2024/01/11 11:53:46;;;;;;;13.63;2.20;;;25.60;99.90;;;;;;4945972;29;20465;-72
2024/01/11 11:56:16;;;;;;;10.13;2.10;;;25.60;99.90;;;;;;4946365;28;20496;-73
2024/01/11 11:58:44;;;;;;;14.38;2.22;;;25.40;99.90;;;;;;4945519;29;20098;-72
2024/01/11 12:01:14;;;;;;;11.13;1.63;;;25.20;99.90;;;;;;4948121;28;20070;-73
2024/01/11 12:03:46;;;;;;;17.77;2.58;;;25.10;99.90;;;;;;4948968;28;20035;-72
2024/01/11 12:06:16;;;;;;;10.52;1.80;;;25.20;99.90;;;;;;4942002;28;20124;-73
2024/01/11 12:08:44;;;;;;;10.90;1.63;;;25.20;99.90;;;;;;4946698;29;20394;-73
2024/01/11 12:11:21;;;;;;;11.23;1.65;;;25.20;99.90;;;;;;4946416;29;20030;-73
2024/01/11 12:13:49;;;;;;;7.80;1.65;;;25.10;99.90;;;;;;4943291;28;20166;-74
2024/01/11 12:16:17;;;;;;;10.00;1.55;;;25.20;99.90;;;;;;4943872;28;20043;-72
2024/01/11 12:18:44;;;;;;;13.00;1.80;;;25.10;99.90;;;;;;4943146;28;20086;-72
2024/01/11 12:21:12;;;;;;;8.20;1.75;;;25.00;99.90;;;;;;4945756;28;20059;-73
2024/01/11 12:23:40;;;;;;;8.45;2.35;;;25.00;99.90;;;;;;4948679;29;20043;-72
2024/01/11 12:26:12;;;;;;;12.00;2.38;;;25.00;99.90;;;;;;4947523;28;20051;-73
2024/01/11 12:28:41;;;;;;;6.18;1.48;;;25.00;99.90;;;;;;4941260;29;20121;-73
2024/01/11 12:31:09;;;;;;;14.00;1.88;;;24.90;99.90;;;;;;4944065;29;20491;-72
2024/01/11 12:33:38;;;;;;;8.43;1.48;;;24.90;99.90;;;;;;4946313;28;20071;-73
2024/01/11 12:36:10;;;;;;;9.57;1.40;;;24.90;99.90;;;;;;4945539;28;20091;-73
2024/01/11 12:38:39;;;;;;;12.27;2.08;;;24.80;99.90;;;;;;4961268;28;20039;-72
2024/01/11 12:41:07;;;;;;;11.20;2.00;;;24.70;99.90;;;;;;4946145;28;20059;-72
2024/01/11 12:43:34;;;;;;;9.32;1.70;;;24.70;99.90;;;;;;4949728;28;20027;-73
2024/01/11 12:46:02;;;;;;;6.85;1.58;;;24.60;99.90;;;;;;4948937;28;20470;-73
2024/01/11 12:48:30;;;;;;;14.30;2.35;;;24.40;99.90;;;;;;4949272;29;20051;-73
2024/01/11 12:50:58;;;;;;;9.45;1.85;;;24.40;99.90;;;;;;4951841;28;20533;-74